Time;durP1;ratioP1;P1;durP2;ratioP2;P2;SDS_P1;SDS_P2;PMS_P1;PMS_P2;Temp;Humidity;BMP_temperature;BMP_pressure;BME280_temperature;BME280_humidity;BME280_pressure;Samples;Min_cycle;Max_cycle;Signal;HPM_P1;HPM_P2
2023/03/31 00:01:40;;;;;;;11.37;1.37;;;11.00;99.90;;;;;;4990724;28;20183;-75
2023/03/31 00:04:12;;;;;;;12.03;1.83;;;11.00;99.90;;;;;;4990638;28;20178;-76
2023/03/31 00:06:40;;;;;;;3.73;0.80;;;11.00;99.90;;;;;;4990238;28;20206;-75
2023/03/31 00:09:20;;;;;;;2.67;0.90;;;11.00;99.90;;;;;;4989908;28;20210;-74
2023/03/31 00:11:48;;;;;;;4.27;0.80;;;11.00;99.90;;;;;;4990588;28;20179;-74
2023/03/31 00:14:16;;;;;;;3.53;1.00;;;13.00;99.90;;;;;;4990222;28;20186;-73
2023/03/31 00:16:43;;;;;;;5.93;1.17;;;11.10;99.90;;;;;;4990315;28;20182;-74
2023/03/31 00:19:16;;;;;;;7.40;1.50;;;11.30;99.90;;;;;;4990744;28;20179;-74
2023/03/31 00:21:43;;;;;;;5.67;1.40;;;11.10;99.90;;;;;;4990763;28;20250;-74
2023/03/31 00:24:10;;;;;;;4.27;1.10;;;11.30;99.90;;;;;;4991559;28;20205;-74
2023/03/31 00:26:36;;;;;;;9.73;1.70;;;11.30;99.90;;;;;;4990832;28;20174;-74
2023/03/31 00:29:03;;;;;;;12.37;1.60;;;11.30;99.90;;;;;;4990225;28;20240;-74
2023/03/31 00:31:29;;;;;;;9.30;2.43;;;11.30;99.90;;;;;;4990588;28;20262;-75
2023/03/31 00:33:55;;;;;;;9.23;1.63;;;11.30;99.90;;;;;;4990634;28;20274;-72
2023/03/31 00:36:25;;;;;;;14.40;2.53;;;11.30;99.90;;;;;;4991024;28;20214;-71
2023/03/31 00:38:57;;;;;;;23.20;3.57;;;11.40;99.90;;;;;;4990114;28;20234;-72
2023/03/31 00:41:23;;;;;;;24.60;3.60;;;11.50;99.90;;;;;;4990676;28;20237;-73
2023/03/31 00:44:05;;;;;;;24.73;4.13;;;11.50;99.90;;;;;;4991100;28;20834;-72
2023/03/31 00:46:36;;;;;;;22.47;4.60;;;11.50;99.90;;;;;;4989587;28;20187;-72
2023/03/31 00:49:02;;;;;;;25.60;4.23;;;11.60;99.90;;;;;;4989372;28;20215;-72
2023/03/31 00:51:32;;;;;;;20.77;3.40;;;11.70;99.90;;;;;;4990478;28;20189;-71
2023/03/31 00:54:03;;;;;;;16.77;2.80;;;11.30;99.90;;;;;;4990749;28;20270;-72
2023/03/31 00:56:33;;;;;;;20.63;4.17;;;11.60;99.90;;;;;;4986558;28;20242;-73
2023/03/31 00:59:02;;;;;;;27.77;4.50;;;11.60;99.90;;;;;;4990802;28;20288;-74
2023/03/31 01:01:29;;;;;;;18.00;3.70;;;11.50;99.90;;;;;;4972184;28;20314;-73
2023/03/31 01:03:56;;;;;;;20.43;3.10;;;11.50;99.90;;;;;;4990833;28;20199;-74
2023/03/31 01:06:24;;;;;;;14.97;2.83;;;11.60;99.90;;;;;;4973020;28;20171;-74
2023/03/31 01:08:51;;;;;;;14.80;2.63;;;11.50;99.90;;;;;;4989615;28;20199;-74
2023/03/31 01:11:19;;;;;;;11.63;2.70;;;11.50;99.90;;;;;;4990360;28;20186;-74
2023/03/31 01:13:48;;;;;;;11.30;2.33;;;;;;;;;;4990850;28;20183;-74
2023/03/31 01:16:14;;;;;;;15.13;2.30;;;11.40;99.90;;;;;;4990392;28;20171;-73
2023/03/31 01:18:45;;;;;;;11.97;1.97;;;11.40;99.90;;;;;;4993367;28;20669;-73
2023/03/31 01:21:41;;;;;;;11.53;2.33;;;11.40;99.90;;;;;;4994079;28;20179;-73
2023/03/31 01:24:25;;;;;;;9.37;1.80;;;11.50;99.90;;;;;;4994000;28;20511;-73
2023/03/31 01:27:32;;;;;;;12.23;2.53;;;11.50;99.90;;;;;;4994198;28;20302;-73
2023/03/31 01:30:22;;;;;;;17.37;3.10;;;11.50;99.90;;;;;;4993079;28;20213;-74
2023/03/31 01:33:07;;;;;;;25.53;3.63;;;11.40;99.90;;;;;;4993905;28;20175;-74
2023/03/31 01:35:42;;;;;;;20.33;3.63;;;11.40;99.90;;;;;;4992972;28;20219;-73
2023/03/31 01:38:11;;;;;;;29.83;4.00;;;11.50;99.90;;;;;;4993548;28;20175;-74
2023/03/31 01:40:39;;;;;;;17.60;3.17;;;11.40;99.90;;;;;;4993918;28;20180;-72
2023/03/31 01:43:17;;;;;;;23.97;3.77;;;11.40;99.90;;;;;;4994065;28;20206;-73
2023/03/31 01:46:20;;;;;;;29.03;4.03;;;11.40;99.90;;;;;;4986915;28;20233;-72
2023/03/31 01:49:07;;;;;;;22.07;3.23;;;11.40;99.90;;;;;;4975093;28;20639;-71
2023/03/31 01:51:49;;;;;;;33.60;6.40;;;11.40;99.90;;;;;;4992228;28;20241;-73
2023/03/31 01:54:31;;;;;;;31.63;5.20;;;11.40;99.90;;;;;;4992910;28;20182;-71
2023/03/31 01:57:19;;;;;;;30.83;4.10;;;11.40;99.90;;;;;;4989326;28;20200;-70
2023/03/31 02:00:32;;;;;;;23.00;4.10;;;11.30;99.90;;;;;;4991696;28;20206;-71
2023/03/31 02:03:09;;;;;;;23.80;4.57;;;11.40;99.90;;;;;;4980623;28;20191;-71
2023/03/31 02:05:41;;;;;;;26.77;3.70;;;11.40;99.90;;;;;;4992586;28;20221;-70
2023/03/31 02:08:12;;;;;;;28.77;3.93;;;11.60;99.90;;;;;;4993212;28;20186;-70
2023/03/31 02:10:41;;;;;;;24.80;4.23;;;11.40;99.90;;;;;;4993545;28;20571;-71
2023/03/31 02:13:10;;;;;;;27.43;5.10;;;11.30;99.90;;;;;;4993035;28;20175;-71
2023/03/31 02:15:40;;;;;;;16.00;3.20;;;11.30;99.90;;;;;;4993780;28;20171;-70
2023/03/31 02:18:10;;;;;;;27.07;4.27;;;11.30;99.90;;;;;;4993250;28;20171;-71
2023/03/31 02:20:40;;;;;;;27.17;3.80;;;11.20;99.90;;;;;;4992809;28;20208;-71
2023/03/31 02:23:08;;;;;;;27.33;4.30;;;11.20;99.90;;;;;;4993245;28;20245;-71
2023/03/31 02:25:50;;;;;;;21.67;3.90;;;11.10;99.90;;;;;;4993415;28;20261;-71
2023/03/31 02:28:21;;;;;;;22.83;4.30;;;11.20;99.90;;;;;;4992221;28;20547;-70
2023/03/31 02:30:49;;;;;;;20.83;3.80;;;11.10;99.90;;;;;;4992894;28;20179;-71
2023/03/31 02:33:16;;;;;;;22.53;3.60;;;;;;;;;;4991957;28;20278;-70
2023/03/31 02:35:42;;;;;;;22.77;3.43;;;11.10;99.90;;;;;;4992370;28;20234;-72
2023/03/31 02:38:08;;;;;;;22.13;3.30;;;11.10;99.90;;;;;;4992776;28;20262;-71
2023/03/31 02:40:34;;;;;;;16.93;2.93;;;11.10;99.90;;;;;;4992503;28;20253;-72
2023/03/31 02:43:00;;;;;;;16.77;2.87;;;11.00;99.90;;;;;;4992266;28;20179;-73
2023/03/31 02:45:42;;;;;;;12.37;2.43;;;11.00;99.90;;;;;;4992667;28;20190;-73
2023/03/31 02:48:17;;;;;;;12.87;2.40;;;11.10;99.90;;;;;;4992095;28;20322;-73
2023/03/31 02:51:07;;;;;;;10.93;1.80;;;11.00;99.90;;;;;;4992377;28;20190;-71
2023/03/31 02:54:08;;;;;;;11.20;1.77;;;11.00;99.90;;;;;;4956836;28;20266;-74
2023/03/31 02:57:00;;;;;;;9.63;2.00;;;10.90;99.90;;;;;;4951092;28;20198;-74
2023/03/31 02:59:26;;;;;;;10.13;2.00;;;;;;;;;;4992818;28;20183;-71
2023/03/31 03:01:59;;;;;;;14.10;2.50;;;11.00;99.90;;;;;;4992467;28;20187;-74
2023/03/31 03:04:35;;;;;;;9.27;1.53;;;10.90;99.90;;;;;;4992773;28;20234;-74
2023/03/31 03:07:33;;;;;;;11.10;1.70;;;10.90;99.90;;;;;;4992321;28;20207;-74
2023/03/31 03:10:28;;;;;;;6.63;1.13;;;10.90;99.90;;;;;;4991427;28;20254;-72
2023/03/31 03:13:12;;;;;;;6.50;1.23;;;10.90;99.90;;;;;;4991874;28;20172;-70
2023/03/31 03:15:49;;;;;;;9.57;1.80;;;10.70;99.90;;;;;;4984984;28;20188;-73
2023/03/31 03:18:16;;;;;;;8.53;1.30;;;10.80;99.90;;;;;;4973357;28;20183;-73
2023/03/31 03:20:47;;;;;;;8.60;1.33;;;10.90;99.90;;;;;;4979837;28;20187;-73
2023/03/31 03:23:13;;;;;;;6.90;1.23;;;10.90;99.90;;;;;;4991520;28;20214;-74
2023/03/31 03:25:39;;;;;;;12.10;1.37;;;10.90;99.90;;;;;;4991012;28;20186;-74
2023/03/31 03:28:06;;;;;;;9.67;1.97;;;11.00;99.90;;;;;;4991445;28;20176;-74
2023/03/31 03:30:31;;;;;;;10.03;1.53;;;11.00;99.90;;;;;;4990561;28;20302;-74
2023/03/31 03:32:57;;;;;;;6.57;1.17;;;11.10;99.90;;;;;;4990642;28;20258;-73
2023/03/31 03:35:23;;;;;;;9.30;1.70;;;11.10;99.90;;;;;;4990035;28;20261;-74
2023/03/31 03:37:49;;;;;;;12.77;2.10;;;11.20;99.90;;;;;;4989901;28;20179;-72
2023/03/31 03:40:15;;;;;;;6.83;1.17;;;11.20;99.90;;;;;;4989518;28;20181;-73
2023/03/31 03:42:40;;;;;;;9.07;1.60;;;11.40;99.90;;;;;;4990674;28;20257;-74
2023/03/31 03:45:06;;;;;;;15.70;2.40;;;11.20;99.90;;;;;;4990907;28;20171;-73
2023/03/31 03:47:32;;;;;;;11.37;2.20;;;11.10;99.90;;;;;;4990960;28;20183;-73
2023/03/31 03:49:58;;;;;;;16.53;2.40;;;11.10;99.90;;;;;;4990028;28;20257;-75
2023/03/31 03:52:23;;;;;;;13.17;2.60;;;11.00;99.90;;;;;;4984327;28;20192;-75
2023/03/31 03:54:49;;;;;;;16.70;3.00;;;10.50;99.90;;;;;;4980477;28;20211;-73
2023/03/31 03:57:15;;;;;;;10.27;2.17;;;;;;;;;;4991167;28;20186;-73
2023/03/31 03:59:41;;;;;;;18.23;2.97;;;11.10;99.90;;;;;;4990018;28;20198;-74
2023/03/31 04:02:06;;;;;;;8.80;1.67;;;11.00;99.90;;;;;;4990987;28;20179;-75
2023/03/31 04:04:32;;;;;;;12.43;2.50;;;11.00;99.90;;;;;;4990347;28;20183;-75
2023/03/31 04:06:58;;;;;;;14.53;2.17;;;11.00;99.90;;;;;;4990683;28;20658;-75
2023/03/31 04:09:23;;;;;;;11.80;1.70;;;11.00;99.90;;;;;;4990224;28;20222;-74
2023/03/31 04:11:49;;;;;;;13.93;2.50;;;11.00;99.90;;;;;;4990195;28;20205;-73
2023/03/31 04:14:15;;;;;;;14.43;2.17;;;11.00;99.90;;;;;;4990307;28;20194;-72
2023/03/31 04:16:41;;;;;;;16.10;2.77;;;11.00;99.90;;;;;;4988658;28;20186;-71
2023/03/31 04:19:07;;;;;;;7.40;1.47;;;11.00;99.90;;;;;;4991188;28;20535;-73
2023/03/31 04:21:33;;;;;;;12.93;2.27;;;11.20;99.90;;;;;;4991297;28;20498;-74
2023/03/31 04:24:06;;;;;;;16.70;2.30;;;11.00;99.90;;;;;;4990731;28;20280;-75
2023/03/31 04:26:42;;;;;;;24.40;2.53;;;11.00;99.90;;;;;;4991395;28;20182;-71
2023/03/31 04:29:12;;;;;;;12.10;2.17;;;11.00;99.90;;;;;;4990091;28;20387;-73
2023/03/31 04:31:41;;;;;;;12.67;2.57;;;13.30;99.90;;;;;;4973542;28;20179;-73
2023/03/31 04:34:12;;;;;;;14.27;2.10;;;;;;;;;;4990286;28;20179;-72
2023/03/31 04:36:47;;;;;;;11.87;2.30;;;11.00;99.90;;;;;;4989919;28;20309;-73
2023/03/31 04:39:25;;;;;;;9.50;2.13;;;11.00;99.90;;;;;;4989690;28;20248;-73
2023/03/31 04:41:54;;;;;;;9.23;1.53;;;11.10;99.90;;;;;;4990280;28;20183;-73
2023/03/31 04:44:19;;;;;;;9.03;2.27;;;11.10;99.90;;;;;;4990715;28;20182;-74
2023/03/31 04:46:45;;;;;;;15.93;2.27;;;11.10;99.90;;;;;;4990023;28;20390;-74
2023/03/31 04:49:10;;;;;;;14.57;1.87;;;11.10;99.90;;;;;;4990662;28;20219;-74
2023/03/31 04:51:36;;;;;;;10.87;1.53;;;11.10;99.90;;;;;;4989808;28;20179;-74
2023/03/31 04:54:02;;;;;;;13.93;2.07;;;11.10;99.90;;;;;;4993894;28;20315;-73
2023/03/31 04:56:27;;;;;;;9.07;1.63;;;11.10;99.90;;;;;;4982292;28;20186;-73
2023/03/31 04:58:53;;;;;;;8.13;1.30;;;11.10;99.90;;;;;;4995611;28;20175;-73
2023/03/31 05:01:19;;;;;;;9.83;1.43;;;;;;;;;;4993660;28;20171;-73
2023/03/31 05:03:46;;;;;;;6.43;1.23;;;11.10;99.90;;;;;;4995524;28;20172;-72
2023/03/31 05:06:13;;;;;;;8.93;1.47;;;11.10;99.90;;;;;;4994661;28;20186;-72
2023/03/31 05:08:39;;;;;;;5.03;1.57;;;;;;;;;;4993925;28;20640;-72
2023/03/31 05:11:05;;;;;;;7.17;1.47;;;11.10;99.90;;;;;;4993205;28;20191;-73
2023/03/31 05:13:31;;;;;;;8.67;1.43;;;11.10;99.90;;;;;;4994146;28;20225;-72
2023/03/31 05:15:57;;;;;;;7.70;1.37;;;11.00;99.90;;;;;;4994203;28;20191;-73
2023/03/31 05:18:23;;;;;;;6.83;1.40;;;11.00;99.90;;;;;;4994599;28;20215;-72
2023/03/31 05:20:48;;;;;;;8.70;1.37;;;11.00;99.90;;;;;;4994444;28;20218;-73
2023/03/31 05:23:14;;;;;;;5.93;1.20;;;11.00;99.90;;;;;;4991792;28;20211;-71
2023/03/31 05:25:41;;;;;;;12.30;1.43;;;11.00;99.90;;;;;;4982257;28;20551;-71
2023/03/31 05:28:08;;;;;;;6.37;1.00;;;11.00;99.90;;;;;;4994463;28;20175;-72
2023/03/31 05:30:34;;;;;;;9.77;1.50;;;;;;;;;;4994771;28;20218;-72
2023/03/31 05:33:00;;;;;;;6.80;1.40;;;11.00;99.90;;;;;;4976551;28;20228;-72
2023/03/31 05:35:26;;;;;;;10.87;1.87;;;11.00;99.90;;;;;;4993686;28;20361;-73
2023/03/31 05:37:52;;;;;;;9.83;1.53;;;11.00;99.90;;;;;;4992870;28;20710;-72
2023/03/31 05:40:17;;;;;;;13.70;2.50;;;11.10;99.90;;;;;;4994122;28;20180;-73
2023/03/31 05:42:43;;;;;;;5.43;1.17;;;11.00;99.90;;;;;;4993536;28;20250;-72
2023/03/31 05:45:09;;;;;;;10.17;1.63;;;10.90;99.90;;;;;;4975561;28;20310;-73
2023/03/31 05:47:35;;;;;;;10.17;1.67;;;;;;;;;;4993115;28;20674;-73
2023/03/31 05:50:06;;;;;;;14.83;1.90;;;10.90;99.90;;;;;;4993590;28;20207;-73
2023/03/31 05:52:32;;;;;;;9.50;1.57;;;10.80;99.90;;;;;;4994111;28;20196;-73
2023/03/31 05:54:57;;;;;;;10.83;2.07;;;10.80;99.90;;;;;;4994054;28;20195;-73
2023/03/31 05:57:23;;;;;;;9.50;1.90;;;11.00;99.90;;;;;;4979577;28;20658;-74
2023/03/31 05:59:48;;;;;;;10.63;1.73;;;10.80;99.90;;;;;;4993858;28;20179;-74
2023/03/31 06:02:14;;;;;;;3.90;1.03;;;10.90;99.90;;;;;;4992135;28;20190;-73
2023/03/31 06:04:40;;;;;;;6.73;1.27;;;10.80;99.90;;;;;;4993827;28;20182;-73
2023/03/31 06:07:07;;;;;;;5.17;0.87;;;10.80;99.90;;;;;;4987233;28;20197;-74
2023/03/31 06:09:32;;;;;;;4.13;1.00;;;10.80;99.90;;;;;;4978035;28;20237;-75
2023/03/31 06:11:58;;;;;;;7.53;1.37;;;10.80;99.90;;;;;;4972791;28;20255;-73
2023/03/31 06:14:24;;;;;;;5.70;1.00;;;10.90;99.90;;;;;;4956037;28;20266;-74
2023/03/31 06:16:49;;;;;;;5.13;0.80;;;10.90;99.90;;;;;;4971850;28;20259;-73
2023/03/31 06:19:15;;;;;;;9.53;1.03;;;10.90;99.90;;;;;;4983796;28;20777;-77
2023/03/31 06:21:40;;;;;;;5.73;1.33;;;10.90;99.90;;;;;;4992895;28;20262;-77
2023/03/31 06:24:08;;;;;;;6.97;1.50;;;9.30;99.90;;;;;;4993099;28;20168;-74
2023/03/31 06:26:33;;;;;;;7.87;1.50;;;10.90;99.90;;;;;;4992589;28;20221;-79
2023/03/31 06:28:59;;;;;;;10.87;1.57;;;10.90;99.90;;;;;;4992867;28;20763;-76
2023/03/31 06:31:25;;;;;;;9.90;1.73;;;11.00;99.90;;;;;;4992012;28;20191;-87
2023/03/31 06:33:52;;;;;;;8.23;1.33;;;10.90;99.90;;;;;;4993236;28;20176;-71
2023/03/31 06:36:20;;;;;;;6.60;1.10;;;10.90;99.90;;;;;;4992964;28;20354;-71
2023/03/31 06:38:47;;;;;;;6.83;1.43;;;10.70;99.90;;;;;;4992673;28;20221;-70
2023/03/31 06:41:14;;;;;;;9.97;1.63;;;10.80;99.90;;;;;;4992627;28;20179;-71
2023/03/31 06:43:40;;;;;;;6.40;1.13;;;10.90;99.90;;;;;;4993021;28;20167;-71
2023/03/31 06:46:06;;;;;;;7.10;1.50;;;10.60;99.90;;;;;;4992027;28;20190;-74
2023/03/31 06:48:32;;;;;;;5.97;1.27;;;10.70;99.90;;;;;;4992772;28;20167;-74
2023/03/31 06:51:02;;;;;;;8.10;1.13;;;10.40;99.90;;;;;;4992857;28;20650;-74
2023/03/31 06:53:29;;;;;;;11.33;2.20;;;;;;;;;;4992590;28;20233;-75
2023/03/31 06:55:55;;;;;;;8.20;1.50;;;10.40;99.90;;;;;;4992290;28;20176;-73
2023/03/31 06:58:21;;;;;;;6.57;1.40;;;10.60;99.90;;;;;;4992818;28;20182;-75
2023/03/31 07:00:47;;;;;;;5.97;1.13;;;10.70;99.90;;;;;;4992078;28;20250;-75
2023/03/31 07:03:13;;;;;;;13.30;1.73;;;11.00;99.90;;;;;;4984538;28;20282;-75
2023/03/31 07:05:38;;;;;;;9.20;1.80;;;10.50;99.90;;;;;;4991969;28;20666;-77
2023/03/31 07:08:04;;;;;;;9.17;1.57;;;11.30;99.90;;;;;;4992058;28;20179;-77
2023/03/31 07:10:31;;;;;;;7.00;1.50;;;10.90;99.90;;;;;;4975781;28;20242;-76
2023/03/31 07:12:57;;;;;;;9.27;1.87;;;10.50;99.90;;;;;;4992828;28;20635;-77
2023/03/31 07:15:23;;;;;;;6.77;1.17;;;10.50;99.90;;;;;;4991721;28;20198;-75
2023/03/31 07:17:52;;;;;;;14.83;1.80;;;10.90;99.90;;;;;;4992513;28;20171;-81
2023/03/31 07:20:19;;;;;;;8.23;1.60;;;10.40;99.90;;;;;;4990876;28;20299;-74
2023/03/31 07:22:47;;;;;;;9.97;1.63;;;10.60;99.90;;;;;;4973305;28;20179;-75
2023/03/31 07:25:16;;;;;;;5.90;1.27;;;10.60;99.90;;;;;;4992118;28;20198;-76
2023/03/31 07:27:42;;;;;;;8.93;1.93;;;10.60;99.90;;;;;;4992532;28;20201;-74
2023/03/31 07:30:15;;;;;;;9.80;1.63;;;10.90;99.90;;;;;;4992024;28;20678;-75
2023/03/31 07:32:42;;;;;;;12.90;2.07;;;10.80;99.90;;;;;;4991886;28;20175;-73
2023/03/31 07:35:10;;;;;;;9.53;1.50;;;10.80;99.90;;;;;;4990833;28;20175;-72
2023/03/31 07:37:40;;;;;;;12.53;1.73;;;10.80;99.90;;;;;;4974999;28;20183;-73
2023/03/31 07:40:08;;;;;;;10.60;1.60;;;10.80;99.90;;;;;;4991228;28;20175;-73
2023/03/31 07:42:34;;;;;;;9.93;1.80;;;;;;;;;;4991699;28;20167;-74
2023/03/31 07:45:01;;;;;;;4.73;0.93;;;10.80;99.90;;;;;;4991950;28;20271;-74
2023/03/31 07:47:27;;;;;;;5.77;1.40;;;;;;;;;;4990658;28;20179;-74
2023/03/31 07:49:53;;;;;;;12.50;1.97;;;10.70;99.90;;;;;;4991256;28;20312;-76
2023/03/31 07:52:19;;;;;;;7.13;1.97;;;10.70;99.90;;;;;;4991992;28;20658;-74
2023/03/31 07:54:45;;;;;;;9.50;1.60;;;10.80;99.90;;;;;;4991123;28;20175;-74
2023/03/31 07:57:11;;;;;;;9.33;1.63;;;10.70;99.90;;;;;;4991506;28;20690;-73
2023/03/31 07:59:37;;;;;;;9.87;1.87;;;10.70;99.90;;;;;;4991934;28;20669;-73
2023/03/31 08:02:03;;;;;;;8.60;1.43;;;10.80;99.90;;;;;;4991609;28;20267;-73
2023/03/31 08:04:28;;;;;;;8.00;1.70;;;10.70;99.90;;;;;;4991650;28;20188;-73
2023/03/31 08:06:54;;;;;;;6.43;1.70;;;10.80;99.90;;;;;;4991645;28;20254;-76
2023/03/31 08:09:21;;;;;;;11.93;2.00;;;10.80;99.90;;;;;;4989306;28;20233;-71
2023/03/31 08:11:47;;;;;;;8.73;1.90;;;10.80;99.90;;;;;;4991429;28;20189;-71
2023/03/31 08:14:13;;;;;;;9.40;1.80;;;11.00;99.90;;;;;;4990912;28;20183;-70
2023/03/31 08:16:39;;;;;;;10.10;1.80;;;10.80;99.90;;;;;;4991369;28;20186;-73
2023/03/31 08:19:05;;;;;;;8.40;1.57;;;10.80;99.90;;;;;;4991342;28;20187;-74
2023/03/31 08:21:31;;;;;;;3.50;1.40;;;10.70;99.90;;;;;;4974079;28;20266;-72
2023/03/31 08:23:57;;;;;;;11.17;1.80;;;10.70;99.90;;;;;;4990979;28;20210;-75
2023/03/31 08:26:24;;;;;;;5.20;1.50;;;10.60;99.90;;;;;;4990845;28;20586;-74
2023/03/31 08:28:50;;;;;;;5.10;1.10;;;10.70;99.90;;;;;;4989652;28;20199;-75
2023/03/31 08:31:18;;;;;;;8.70;1.30;;;10.80;99.90;;;;;;4991282;28;20375;-73
2023/03/31 08:33:44;;;;;;;5.63;1.30;;;10.80;99.90;;;;;;4990729;28;20183;-73
2023/03/31 08:36:10;;;;;;;3.23;1.10;;;11.10;99.90;;;;;;4990473;28;20257;-75
2023/03/31 08:38:38;;;;;;;5.80;1.03;;;11.00;99.90;;;;;;4990128;28;20691;-78
2023/03/31 08:41:06;;;;;;;2.50;1.10;;;11.00;99.90;;;;;;4991408;28;20167;-74
2023/03/31 08:43:45;;;;;;;4.43;1.23;;;10.90;99.90;;;;;;4972884;28;20211;-74
2023/03/31 08:46:13;;;;;;;3.23;1.20;;;10.40;99.90;;;;;;4974725;28;20649;-73
2023/03/31 08:48:53;;;;;;;5.03;1.50;;;11.40;99.90;;;;;;4990228;28;20182;-74
2023/03/31 08:51:26;;;;;;;4.73;1.40;;;11.40;99.90;;;;;;4990422;28;20190;-74
2023/03/31 08:54:19;;;;;;;4.73;1.67;;;11.60;99.90;;;;;;4989573;28;20167;-74
2023/03/31 08:56:48;;;;;;;2.23;1.50;;;11.70;99.90;;;;;;4990284;28;20179;-74
2023/03/31 08:59:29;;;;;;;6.50;1.50;;;11.90;99.90;;;;;;4990104;28;20176;-74
2023/03/31 09:02:19;;;;;;;6.03;1.83;;;12.00;99.90;;;;;;4990165;28;20218;-73
2023/03/31 09:05:10;;;;;;;6.87;2.20;;;12.00;99.90;;;;;;4989564;28;20179;-73
2023/03/31 09:07:47;;;;;;;4.80;2.20;;;12.00;99.90;;;;;;4990520;28;20194;-74
2023/03/31 09:10:34;;;;;;;7.00;2.63;;;12.10;99.90;;;;;;4989914;28;20210;-74
2023/03/31 09:13:20;;;;;;;6.13;2.40;;;12.10;99.90;;;;;;4990413;28;20178;-75
2023/03/31 09:15:52;;;;;;;9.13;2.90;;;12.30;99.90;;;;;;4989883;28;20310;-75
2023/03/31 09:18:34;;;;;;;7.63;3.27;;;12.40;99.90;;;;;;4988132;28;20651;-74
2023/03/31 09:21:15;;;;;;;12.23;3.50;;;12.50;99.90;;;;;;4988719;28;20662;-75
2023/03/31 09:23:56;;;;;;;10.80;3.60;;;12.50;99.90;;;;;;4990001;28;20180;-75
2023/03/31 09:26:28;;;;;;;8.63;2.80;;;12.70;99.90;;;;;;4990135;28;20194;-76
2023/03/31 09:28:57;;;;;;;8.83;3.10;;;12.80;99.90;;;;;;4981252;28;20210;-76
2023/03/31 09:31:24;;;;;;;5.73;2.33;;;12.90;99.90;;;;;;4990737;28;20378;-76
2023/03/31 09:33:54;;;;;;;9.83;2.90;;;12.90;99.90;;;;;;4989786;28;20669;-75
2023/03/31 09:36:23;;;;;;;6.60;2.33;;;12.90;99.90;;;;;;4990593;28;20231;-75
2023/03/31 09:38:49;;;;;;;8.77;2.40;;;12.80;99.90;;;;;;4991734;28;20187;-74
2023/03/31 09:41:17;;;;;;;7.93;2.30;;;12.70;99.90;;;;;;5005054;28;20179;-75
2023/03/31 09:43:44;;;;;;;5.33;1.90;;;12.70;99.90;;;;;;4994483;28;20182;-74
2023/03/31 09:46:33;;;;;;;8.17;1.97;;;12.50;99.90;;;;;;4994158;28;20179;-76
2023/03/31 09:49:19;;;;;;;7.70;1.70;;;12.40;99.90;;;;;;4994727;28;20199;-75
2023/03/31 09:51:51;;;;;;;5.80;1.37;;;12.60;99.90;;;;;;4994721;28;20186;-75
2023/03/31 09:54:32;;;;;;;3.83;1.17;;;12.50;99.90;;;;;;4994804;28;20224;-75
2023/03/31 09:56:58;;;;;;;3.43;1.20;;;12.70;99.90;;;;;;4994189;28;20186;-75
2023/03/31 09:59:34;;;;;;;5.33;1.23;;;12.80;99.90;;;;;;4993674;28;20171;-74
2023/03/31 10:02:28;;;;;;;3.40;1.30;;;12.80;99.90;;;;;;4992098;28;20713;-75
2023/03/31 10:04:54;;;;;;;4.20;0.80;;;;;;;;;;4993063;28;20217;-71
2023/03/31 10:07:22;;;;;;;2.27;0.90;;;12.70;99.90;;;;;;4993792;28;20163;-71
2023/03/31 10:09:48;;;;;;;5.23;1.10;;;12.60;99.90;;;;;;4994170;28;20234;-71
2023/03/31 10:12:16;;;;;;;5.30;0.80;;;12.60;99.90;;;;;;4994161;28;20282;-71
2023/03/31 10:14:50;;;;;;;5.70;0.80;;;12.30;99.90;;;;;;4994173;28;20649;-70
2023/03/31 10:17:18;;;;;;;3.47;0.80;;;11.60;99.90;;;;;;4994068;28;20237;-71
2023/03/31 10:19:48;;;;;;;1.50;0.60;;;12.30;99.90;;;;;;4993987;28;20206;-71
2023/03/31 10:22:41;;;;;;;2.47;0.83;;;12.50;99.90;;;;;;4993960;28;20202;-71
2023/03/31 10:25:27;;;;;;;3.00;0.80;;;12.60;99.90;;;;;;4994105;28;20183;-71
2023/03/31 10:27:55;;;;;;;5.53;1.37;;;12.60;99.90;;;;;;4994091;28;20205;-71
2023/03/31 10:30:27;;;;;;;2.77;0.83;;;12.40;99.90;;;;;;4993761;28;20706;-70
2023/03/31 10:32:53;;;;;;;3.73;1.03;;;12.60;99.90;;;;;;4993608;28;20171;-70
2023/03/31 10:35:28;;;;;;;4.73;1.13;;;12.60;99.90;;;;;;4992819;28;20178;-69
2023/03/31 10:37:57;;;;;;;3.43;1.00;;;12.60;99.90;;;;;;4993251;28;20323;-69
2023/03/31 10:40:27;;;;;;;3.60;1.23;;;12.90;99.90;;;;;;4993392;28;20673;-71
2023/03/31 10:43:09;;;;;;;4.23;1.40;;;13.10;99.90;;;;;;4993538;28;20171;-71
2023/03/31 10:45:51;;;;;;;7.73;1.70;;;13.50;99.90;;;;;;4993156;28;20233;-71
2023/03/31 10:48:27;;;;;;;5.00;1.80;;;14.20;99.90;;;;;;4975641;28;20178;-73
2023/03/31 10:50:57;;;;;;;3.93;1.80;;;14.10;99.90;;;;;;4992660;28;20214;-72
2023/03/31 10:53:23;;;;;;;4.35;1.98;;;14.10;99.90;;;;;;4992795;28;20198;-73
2023/03/31 10:56:06;;;;;;;8.18;2.05;;;14.00;99.90;;;;;;4988237;28;20205;-72
2023/03/31 10:59:00;;;;;;;6.23;2.03;;;14.00;99.90;;;;;;4981201;28;20183;-73
2023/03/31 11:01:53;;;;;;;5.67;1.80;;;14.00;99.90;;;;;;4992127;28;20202;-72
2023/03/31 11:04:35;;;;;;;3.90;0.80;;;13.30;99.90;;;;;;4972492;28;20176;-72
2023/03/31 11:07:08;;;;;;;7.77;1.50;;;13.40;99.90;;;;;;4972047;28;20255;-72
2023/03/31 11:09:34;;;;;;;3.33;0.83;;;13.40;99.90;;;;;;4982575;28;20298;-73
2023/03/31 11:12:18;;;;;;;6.23;1.23;;;13.40;99.90;;;;;;4955745;28;20222;-72
2023/03/31 11:14:46;;;;;;;4.97;1.47;;;13.60;99.90;;;;;;4969334;28;20210;-72
2023/03/31 11:17:24;;;;;;;6.27;1.30;;;13.50;99.90;;;;;;4992856;28;20179;-71
2023/03/31 11:19:54;;;;;;;3.77;0.87;;;13.30;99.90;;;;;;4992497;28;20175;-72
2023/03/31 11:22:53;;;;;;;8.20;1.60;;;13.30;99.90;;;;;;4991807;28;20334;-72
2023/03/31 11:25:52;;;;;;;6.23;1.37;;;13.30;99.90;;;;;;4990724;28;20181;-71
2023/03/31 11:28:20;;;;;;;8.97;2.07;;;13.50;99.90;;;;;;4969670;28;20311;-72
2023/03/31 11:31:14;;;;;;;6.27;2.00;;;14.00;99.90;;;;;;4972148;28;20235;-71
2023/03/31 11:33:39;;;;;;;5.73;1.93;;;13.70;99.90;;;;;;4972354;28;20174;-71
2023/03/31 11:36:17;;;;;;;9.27;1.90;;;13.50;99.90;;;;;;4972915;28;20219;-73
2023/03/31 11:38:49;;;;;;;5.63;1.27;;;13.20;99.90;;;;;;4982399;28;20182;-74
2023/03/31 11:41:15;;;;;;;8.33;1.67;;;;;;;;;;4991973;28;20175;-75
2023/03/31 11:44:02;;;;;;;10.27;1.70;;;12.50;99.90;;;;;;4991190;28;20650;-74
2023/03/31 11:46:38;;;;;;;13.77;1.93;;;12.20;99.90;;;;;;4992201;28;20199;-74
2023/03/31 11:49:37;;;;;;;8.43;1.97;;;12.00;99.90;;;;;;4990915;28;20217;-74
2023/03/31 11:52:08;;;;;;;9.27;1.57;;;11.80;99.90;;;;;;4974025;28;20225;-75
2023/03/31 11:55:02;;;;;;;3.23;1.10;;;11.80;99.90;;;;;;4990795;28;20159;-74
2023/03/31 11:57:40;;;;;;;7.60;1.20;;;11.90;99.90;;;;;;4992353;28;20246;-74
2023/03/31 12:00:17;;;;;;;5.93;1.10;;;11.80;99.90;;;;;;4992215;28;20581;-75
2023/03/31 12:03:14;;;;;;;7.83;1.47;;;11.90;99.90;;;;;;4991637;28;20333;-74
2023/03/31 12:05:45;;;;;;;8.70;1.53;;;12.00;99.90;;;;;;4960978;28;20179;-73
2023/03/31 12:08:30;;;;;;;8.10;1.87;;;12.20;99.90;;;;;;4991951;28;20199;-74
2023/03/31 12:11:22;;;;;;;6.47;1.43;;;12.40;99.90;;;;;;4991062;28;20210;-74
2023/03/31 12:14:05;;;;;;;8.87;1.80;;;12.20;99.90;;;;;;4985600;28;20199;-74
2023/03/31 12:16:45;;;;;;;15.50;1.37;;;12.20;99.90;;;;;;4971023;28;20180;-73
2023/03/31 12:19:27;;;;;;;10.80;1.67;;;12.20;99.90;;;;;;4972429;28;20175;-74
2023/03/31 12:22:03;;;;;;;7.20;1.43;;;12.00;99.90;;;;;;4961122;28;20638;-73
2023/03/31 12:24:30;;;;;;;6.50;1.47;;;11.80;99.90;;;;;;4990670;28;20170;-75
2023/03/31 12:27:11;;;;;;;6.10;1.00;;;11.80;99.90;;;;;;4980583;28;20187;-74
2023/03/31 12:29:47;;;;;;;6.30;1.63;;;11.70;99.90;;;;;;4969641;28;20211;-75
2023/03/31 12:32:22;;;;;;;10.17;2.03;;;11.70;99.90;;;;;;4971986;28;20234;-74
2023/03/31 12:34:58;;;;;;;6.83;1.80;;;12.00;99.90;;;;;;4988043;28;20182;-74
2023/03/31 12:37:41;;;;;;;9.17;1.33;;;12.00;99.90;;;;;;4991088;28;20222;-73
2023/03/31 12:40:30;;;;;;;9.53;1.67;;;12.00;99.90;;;;;;4983747;28;20190;-74
2023/03/31 12:43:10;;;;;;;10.47;1.70;;;12.00;99.90;;;;;;4976433;28;20183;-75
2023/03/31 12:45:42;;;;;;;6.10;1.43;;;12.00;99.90;;;;;;4986182;28;20219;-75
2023/03/31 12:48:32;;;;;;;6.33;1.53;;;11.90;99.90;;;;;;4979461;28;20179;-75
2023/03/31 12:51:09;;;;;;;6.77;1.27;;;11.80;99.90;;;;;;4990001;28;20218;-74
2023/03/31 12:53:34;;;;;;;5.00;1.10;;;11.80;99.90;;;;;;4987513;28;20170;-75
2023/03/31 12:56:00;;;;;;;3.83;0.90;;;;;;;;;;4990687;28;20172;-74
2023/03/31 12:58:28;;;;;;;3.93;0.83;;;11.60;99.90;;;;;;4990480;28;20171;-74
2023/03/31 13:01:13;;;;;;;6.90;1.03;;;11.50;99.90;;;;;;4990010;28;20672;-74
2023/03/31 13:04:08;;;;;;;2.33;0.70;;;11.50;99.90;;;;;;4990337;28;20179;-74
2023/03/31 13:06:37;;;;;;;2.63;0.60;;;11.50;99.90;;;;;;4991141;28;20184;-74
2023/03/31 13:09:26;;;;;;;3.43;0.67;;;11.30;99.90;;;;;;4990831;28;20653;-75
2023/03/31 13:11:51;;;;;;;6.47;1.20;;;11.20;99.90;;;;;;4977709;28;20188;-75
2023/03/31 13:14:25;;;;;;;6.10;1.43;;;11.40;99.90;;;;;;4993014;28;20225;-75